createdAt,value
2023-05-14T00:01:28.167Z,102083.25
2023-05-14T00:03:54.864Z,102092.31
2023-05-14T00:06:21.559Z,102075.31
2023-05-14T00:08:47.983Z,102079.09
2023-05-14T00:11:14.634Z,102078.75
2023-05-14T00:13:41.118Z,102066.28
2023-05-14T00:16:07.708Z,102072.28
2023-05-14T00:18:34.263Z,102064.34
2023-05-14T00:21:00.780Z,102066.25
2023-05-14T00:23:27.204Z,102066.97
2023-05-14T00:25:53.640Z,102060.97
2023-05-14T00:28:20.304Z,102054.91
2023-05-14T00:30:46.795Z,102061.69
2023-05-14T00:33:13.420Z,102061.69
2023-05-14T00:35:39.847Z,102052.25
2023-05-14T00:38:06.319Z,102051.09
2023-05-14T00:40:33.005Z,102057.16
2023-05-14T00:42:59.610Z,102051.09
2023-05-14T00:45:26.279Z,102044.69
2023-05-14T00:47:54.028Z,102040.16
2023-05-14T00:50:21.274Z,102044.31
2023-05-14T00:52:48.028Z,102036.75
2023-05-14T00:55:16.642Z,102044.31
2023-05-14T00:57:43.840Z,102040.91
2023-05-14T01:00:10.905Z,102029.19
2023-05-14T01:02:37.520Z,102029.94
2023-05-14T01:05:04.513Z,102032.22
2023-05-14T01:07:42.882Z,102035.63
2023-05-14T01:10:32.175Z,102033.00
2023-05-14T01:13:21.879Z,102025.44
2023-05-14T01:15:49.259Z,102023.53
2023-05-14T01:18:19.173Z,102025.06
2023-05-14T01:20:46.022Z,102024.28
2023-05-14T01:23:12.437Z,102021.66
2023-05-14T01:25:38.892Z,102020.88
2023-05-14T01:28:14.788Z,102019.75
2023-05-14T01:30:48.928Z,102026.56
2023-05-14T01:33:21.884Z,102020.13
2023-05-14T01:35:49.680Z,102019.75
2023-05-14T01:38:18.729Z,102029.97
2023-05-14T01:40:46.767Z,102024.66
2023-05-14T01:43:15.145Z,102022.03
2023-05-14T01:45:42.289Z,102014.81
2023-05-14T01:48:08.789Z,102017.47
2023-05-14T01:50:35.289Z,102012.19
2023-05-14T01:53:01.799Z,102020.13
2023-05-14T01:55:28.232Z,102019.00
2023-05-14T01:57:54.939Z,102013.69
2023-05-14T02:00:27.861Z,102017.13
2023-05-14T02:02:54.362Z,102015.97
2023-05-14T02:05:21.158Z,102007.25
2023-05-14T02:07:47.948Z,102009.16
2023-05-14T02:10:14.510Z,102014.44
2023-05-14T02:12:41.002Z,102006.50
2023-05-14T02:15:09.009Z,102006.50
2023-05-14T02:17:35.510Z,101991.41
2023-05-14T02:20:02.010Z,101994.03
2023-05-14T02:22:28.466Z,101994.44
2023-05-14T02:24:54.879Z,101989.88
2023-05-14T02:27:21.419Z,101990.63
2023-05-14T02:29:47.934Z,101984.59
2023-05-14T02:32:14.468Z,101984.59
2023-05-14T02:34:40.940Z,101986.88
2023-05-14T02:37:07.418Z,101991.78
2023-05-14T02:39:33.944Z,101987.63
2023-05-14T02:42:00.381Z,101985.00
2023-05-14T02:44:26.797Z,101981.59
2023-05-14T02:46:53.370Z,101978.94
2023-05-14T02:49:19.937Z,101979.28
2023-05-14T02:51:46.374Z,101982.72
2023-05-14T02:54:12.762Z,101984.56
2023-05-14T02:56:39.224Z,101987.63
2023-05-14T02:59:05.656Z,101981.59
2023-05-14T03:01:32.525Z,101977.03
2023-05-14T03:03:59.439Z,101979.69
2023-05-14T03:06:25.901Z,101980.81
2023-05-14T03:08:52.303Z,101981.56
2023-05-14T03:11:18.757Z,101980.81
2023-05-14T03:13:45.327Z,101982.34
2023-05-14T03:16:11.866Z,101992.91
2023-05-14T03:18:38.299Z,101989.13
2023-05-14T03:21:04.795Z,101986.88
2023-05-14T03:23:35.053Z,101988.00
2023-05-14T03:26:02.159Z,101988.38
2023-05-14T03:28:28.561Z,101986.47
2023-05-14T03:30:55.060Z,101981.59
2023-05-14T03:33:21.881Z,101985.72
2023-05-14T03:35:48.388Z,101981.94
2023-05-14T03:38:14.798Z,101973.25
2023-05-14T03:40:41.275Z,101969.50
2023-05-14T03:43:07.669Z,101982.31
2023-05-14T03:45:34.108Z,101974.38
2023-05-14T03:48:00.684Z,101974.03
2023-05-14T03:50:27.282Z,101970.63
2023-05-14T03:52:54.932Z,101974.03
2023-05-14T03:55:21.600Z,101984.22
2023-05-14T03:57:48.710Z,101982.31
2023-05-14T04:00:16.035Z,101978.19
2023-05-14T04:02:42.733Z,101981.56
2023-05-14T04:05:09.629Z,101977.44
2023-05-14T04:07:36.056Z,101979.69
2023-05-14T04:10:05.727Z,101972.16
2023-05-14T04:12:32.152Z,101964.22
2023-05-14T04:14:58.600Z,101971.38
2023-05-14T04:17:25.701Z,101969.84
2023-05-14T04:19:52.271Z,101971.38
2023-05-14T04:22:18.698Z,101961.56
2023-05-14T04:24:45.114Z,101967.97
2023-05-14T04:27:11.517Z,101966.84
2023-05-14T04:29:37.913Z,101965.69
2023-05-14T04:32:04.854Z,101961.16
2023-05-14T04:34:31.380Z,101961.53
2023-05-14T04:36:57.812Z,101968.31
2023-05-14T04:39:24.685Z,101958.88
2023-05-14T04:41:51.182Z,101959.63
2023-05-14T04:44:17.857Z,101961.53
2023-05-14T04:46:44.260Z,101957.38
2023-05-14T04:49:10.704Z,101957.75
2023-05-14T04:51:37.120Z,101962.69
2023-05-14T04:54:03.706Z,101960.03
2023-05-14T04:56:30.111Z,101960.78
2023-05-14T04:58:56.559Z,101973.25
2023-05-14T05:01:23.651Z,101967.22
2023-05-14T05:03:50.958Z,101963.44
2023-05-14T05:06:17.724Z,101963.81
2023-05-14T05:08:44.141Z,101973.25
2023-05-14T05:11:10.622Z,101969.09
2023-05-14T05:13:37.062Z,101970.22
2023-05-14T05:16:03.647Z,101971.38
2023-05-14T05:18:30.294Z,101973.25
2023-05-14T05:20:56.726Z,101981.94
2023-05-14T05:23:23.378Z,101979.66
2023-05-14T05:25:50.506Z,101978.56
2023-05-14T05:28:16.958Z,101978.16
2023-05-14T05:30:45.184Z,101981.56
2023-05-14T05:33:12.520Z,101978.56
2023-05-14T05:35:39.095Z,101978.91
2023-05-14T05:38:05.569Z,101979.31
2023-05-14T05:40:32.052Z,101977.03
2023-05-14T05:42:58.461Z,101975.53
2023-05-14T05:45:24.867Z,101982.69
2023-05-14T05:47:51.360Z,101984.97
2023-05-14T05:50:18.952Z,101990.25
2023-05-14T05:52:46.536Z,101990.63
2023-05-14T05:55:12.963Z,101986.09
2023-05-14T05:57:39.423Z,101987.63
2023-05-14T06:00:13.237Z,101981.94
2023-05-14T06:02:40.805Z,101979.69
2023-05-14T06:05:08.547Z,101989.91
2023-05-14T06:07:35.325Z,101989.53
2023-05-14T06:10:02.044Z,101992.91
2023-05-14T06:12:28.507Z,101992.53
2023-05-14T06:14:57.706Z,101990.66
2023-05-14T06:17:25.228Z,102000.47
2023-05-14T06:19:52.304Z,101994.41
2023-05-14T06:22:18.960Z,101998.22
2023-05-14T06:24:45.644Z,102008.03
2023-05-14T06:27:12.043Z,102012.22
2023-05-14T06:29:38.625Z,102007.28
2023-05-14T06:32:05.573Z,102013.31
2023-05-14T06:34:32.157Z,102019.78
2023-05-14T06:36:58.646Z,102020.13
2023-05-14T06:39:25.102Z,102005.00
2023-05-14T06:41:51.671Z,102004.66
2023-05-14T06:44:19.515Z,102019.75
2023-05-14T06:46:46.001Z,102023.91
2023-05-14T06:49:12.471Z,102004.22
2023-05-14T06:51:39.136Z,102005.75
2023-05-14T06:54:05.619Z,102008.81
2023-05-14T06:56:32.052Z,102003.84
2023-05-14T06:58:58.462Z,102005.75
2023-05-14T07:01:24.938Z,102007.66
2023-05-14T07:03:51.441Z,101995.56
2023-05-14T07:06:17.912Z,101999.72
2023-05-14T07:08:47.338Z,101998.94
2023-05-14T07:11:14.124Z,101987.63
2023-05-14T07:13:41.197Z,102002.75
2023-05-14T07:16:11.265Z,102000.84
2023-05-14T07:18:37.802Z,102001.97
2023-05-14T07:21:07.234Z,101992.16
2023-05-14T07:23:36.537Z,101987.59
2023-05-14T07:26:03.551Z,101995.16
2023-05-14T07:28:30.002Z,101990.28
2023-05-14T07:30:56.575Z,101998.22
2023-05-14T07:33:23.560Z,101995.53
2023-05-14T07:35:50.530Z,101993.66
2023-05-14T07:38:20.020Z,101995.16
2023-05-14T07:40:46.707Z,101996.69
2023-05-14T07:43:14.480Z,101991.00
2023-05-14T07:45:41.223Z,101987.22
2023-05-14T07:48:07.882Z,101992.88
2023-05-14T07:50:34.510Z,101986.09
2023-05-14T07:53:00.896Z,101984.59
2023-05-14T07:55:27.292Z,101980.81
2023-05-14T07:57:53.725Z,101989.88
2023-05-14T08:00:20.299Z,101989.13
2023-05-14T08:02:46.892Z,101987.59
2023-05-14T08:05:13.505Z,101986.09
2023-05-14T08:07:39.965Z,101983.81
2023-05-14T08:10:07.806Z,101977.00
2023-05-14T08:12:34.318Z,101978.16
2023-05-14T08:15:00.786Z,101977.00
2023-05-14T08:17:27.295Z,101981.56
2023-05-14T08:19:54.124Z,101982.31
2023-05-14T08:22:20.639Z,101979.66
2023-05-14T08:24:47.176Z,101986.88
2023-05-14T08:27:13.646Z,101987.59
2023-05-14T08:29:40.059Z,101985.38
2023-05-14T08:32:19.359Z,101983.47
2023-05-14T08:34:50.110Z,101971.72
2023-05-14T08:37:16.527Z,101980.03
2023-05-14T08:39:42.946Z,101981.59
2023-05-14T08:42:12.688Z,101983.47
2023-05-14T08:44:47.733Z,101971.75
2023-05-14T08:47:16.068Z,101963.78
2023-05-14T08:49:44.938Z,101959.25
2023-05-14T08:52:12.356Z,101961.50
2023-05-14T08:54:40.394Z,101965.28
2023-05-14T08:57:09.929Z,101973.22
2023-05-14T08:59:36.587Z,101966.41
2023-05-14T09:02:06.363Z,101961.53
2023-05-14T09:04:33.760Z,101954.34
2023-05-14T09:07:02.130Z,101957.75
2023-05-14T09:09:28.670Z,101947.53
2023-05-14T09:11:55.179Z,101957.00
2023-05-14T09:14:22.459Z,101956.25
2023-05-14T09:16:50.614Z,101945.28
2023-05-14T09:19:19.227Z,101949.81
2023-05-14T09:21:50.077Z,101949.81
2023-05-14T09:24:26.849Z,101952.09
2023-05-14T09:26:54.690Z,101943.75
2023-05-14T09:29:21.390Z,101940.00
2023-05-14T09:31:50.473Z,101934.69
2023-05-14T09:34:28.374Z,101939.25
2023-05-14T09:36:58.624Z,101930.53
2023-05-14T09:39:25.769Z,101934.28
2023-05-14T09:41:52.345Z,101928.66
2023-05-14T09:44:19.746Z,101920.69
2023-05-14T09:46:46.948Z,101923.72
2023-05-14T09:49:13.539Z,101928.25
2023-05-14T09:51:40.095Z,101927.09
2023-05-14T09:54:07.342Z,101930.91
2023-05-14T09:56:34.991Z,101932.78
2023-05-14T09:59:01.548Z,101923.00
2023-05-14T10:01:29.286Z,101922.63
2023-05-14T10:03:56.508Z,101929.38
2023-05-14T10:06:29.459Z,101924.53
2023-05-14T10:08:59.898Z,101931.31
2023-05-14T10:11:30.465Z,101916.94
2023-05-14T10:14:04.550Z,101918.44
2023-05-14T10:16:37.921Z,101916.59
2023-05-14T10:19:11.823Z,101905.97
2023-05-14T10:21:41.212Z,101900.69
2023-05-14T10:24:09.833Z,101909.75
2023-05-14T10:26:39.268Z,101912.00
2023-05-14T10:29:06.520Z,101903.28
2023-05-14T10:31:56.525Z,101902.94
2023-05-14T10:34:40.765Z,101899.91
2023-05-14T10:37:11.574Z,101901.41
2023-05-14T10:39:56.776Z,101888.88
2023-05-14T10:42:25.812Z,101890.78
2023-05-14T10:44:58.888Z,101887.75
2023-05-14T10:47:29.424Z,101888.91
2023-05-14T10:49:57.728Z,101886.25
2023-05-14T10:52:26.358Z,101886.22
2023-05-14T10:55:03.131Z,101883.19
2023-05-14T10:57:31.600Z,101877.84
2023-05-14T11:00:00.241Z,101874.44
2023-05-14T11:02:27.683Z,101874.41
2023-05-14T11:04:58.132Z,101871.72
2023-05-14T11:07:29.100Z,101869.06
2023-05-14T11:10:01.260Z,101865.94
2023-05-14T11:12:28.811Z,101867.00
2023-05-14T11:14:59.354Z,101858.63
2023-05-14T11:17:27.103Z,101868.44
2023-05-14T11:19:54.023Z,101857.06
2023-05-14T11:22:20.910Z,101857.03
2023-05-14T11:24:47.683Z,101855.44
2023-05-14T11:27:14.211Z,101860.69
2023-05-14T11:29:46.792Z,101852.69
2023-05-14T11:32:14.299Z,101858.28
2023-05-14T11:34:42.061Z,101847.25
2023-05-14T11:37:10.098Z,101843.00
2023-05-14T11:39:39.616Z,101838.81
2023-05-14T11:42:12.288Z,101836.44
2023-05-14T11:44:39.333Z,101835.28
2023-05-14T11:47:06.512Z,101833.38
2023-05-14T11:49:35.473Z,101838.97
2023-05-14T11:52:03.821Z,101828.75
2023-05-14T11:54:31.599Z,101835.16
2023-05-14T11:56:59.419Z,101828.72
2023-05-14T11:59:27.556Z,101829.06
2023-05-14T12:01:55.060Z,101817.72
2023-05-14T12:04:22.911Z,101818.97
2023-05-14T12:06:51.527Z,101818.50
2023-05-14T12:09:19.307Z,101812.78
2023-05-14T12:11:51.054Z,101808.56
2023-05-14T12:14:20.738Z,101812.31
2023-05-14T12:16:48.735Z,101808.88
2023-05-14T12:19:17.881Z,101808.81
2023-05-14T12:21:45.596Z,101809.94
2023-05-14T12:24:13.351Z,101802.31
2023-05-14T12:26:43.984Z,101806.81
2023-05-14T12:29:13.437Z,101798.50
2023-05-14T12:31:46.645Z,101805.06
2023-05-14T12:34:13.265Z,101807.34
2023-05-14T12:36:39.761Z,101802.09
2023-05-14T12:39:06.182Z,101793.06
2023-05-14T12:41:33.496Z,101794.91
2023-05-14T12:44:00.798Z,101789.84
2023-05-14T12:46:27.897Z,101786.34
2023-05-14T12:48:54.810Z,101784.03
2023-05-14T12:51:21.304Z,101782.31
2023-05-14T12:53:48.164Z,101777.50
2023-05-14T12:56:14.966Z,101779.38
2023-05-14T12:58:41.509Z,101772.59
2023-05-14T13:01:08.540Z,101773.75
2023-05-14T13:03:35.052Z,101772.22
2023-05-14T13:06:01.623Z,101776.13
2023-05-14T13:08:28.314Z,101775.81
2023-05-14T13:10:55.853Z,101777.78
2023-05-14T13:13:23.503Z,101768.00
2023-05-14T13:15:50.075Z,101765.75
2023-05-14T13:18:20.404Z,101776.41
2023-05-14T13:20:49.480Z,101763.94
2023-05-14T13:23:15.909Z,101771.19
2023-05-14T13:25:42.340Z,101770.88
2023-05-14T13:28:09.292Z,101765.63
2023-05-14T13:30:35.983Z,101769.03
2023-05-14T13:33:02.532Z,101762.56
2023-05-14T13:35:29.025Z,101760.31
2023-05-14T13:37:55.453Z,101756.91
2023-05-14T13:40:22.020Z,101757.28
2023-05-14T13:42:48.496Z,101758.44
2023-05-14T13:45:14.984Z,101739.19
2023-05-14T13:47:41.517Z,101750.25
2023-05-14T13:50:08.324Z,101741.66
2023-05-14T13:52:34.789Z,101748.03
2023-05-14T13:55:01.624Z,101735.91
2023-05-14T13:57:28.048Z,101733.63
2023-05-14T13:59:54.516Z,101731.34
2023-05-14T14:02:21.083Z,101735.50
2023-05-14T14:04:49.353Z,101721.50
2023-05-14T14:07:15.842Z,101729.78
2023-05-14T14:09:42.269Z,101725.25
2023-05-14T14:12:09.258Z,101732.09
2023-05-14T14:14:35.695Z,101726.78
2023-05-14T14:17:02.162Z,101719.94
2023-05-14T14:19:28.592Z,101723.38
2023-05-14T14:21:55.065Z,101724.91
2023-05-14T14:24:21.460Z,101730.97
2023-05-14T14:26:47.936Z,101714.69
2023-05-14T14:29:14.446Z,101718.47
2023-05-14T14:31:41.022Z,101717.75
2023-05-14T14:34:07.541Z,101721.13
2023-05-14T14:36:34.029Z,101718.47
2023-05-14T14:39:00.441Z,101717.75
2023-05-14T14:41:27.408Z,101715.84
2023-05-14T14:43:53.928Z,101711.69
2023-05-14T14:46:20.388Z,101715.50
2023-05-14T14:48:46.914Z,101711.69
2023-05-14T14:51:13.449Z,101705.66
2023-05-14T14:53:40.469Z,101710.19
2023-05-14T14:56:07.102Z,101710.19
2023-05-14T14:58:33.676Z,101711.00
2023-05-14T15:01:01.170Z,101711.75
2023-05-14T15:03:28.068Z,101709.09
2023-05-14T15:05:54.612Z,101714.00
2023-05-14T15:08:25.643Z,101718.97
2023-05-14T15:10:52.240Z,101703.44
2023-05-14T15:13:19.118Z,101700.44
2023-05-14T15:15:45.708Z,101705.78
2023-05-14T15:18:12.210Z,101700.84
2023-05-14T15:20:38.906Z,101698.25
2023-05-14T15:23:06.085Z,101700.91
2023-05-14T15:25:32.668Z,101703.13
2023-05-14T15:27:59.126Z,101694.47
2023-05-14T15:30:25.594Z,101695.19
2023-05-14T15:32:52.379Z,101698.22
2023-05-14T15:35:19.060Z,101688.75
2023-05-14T15:37:45.569Z,101686.84
2023-05-14T15:40:12.488Z,101685.00
2023-05-14T15:42:43.650Z,101683.88
2023-05-14T15:45:12.342Z,101683.88
2023-05-14T15:47:38.861Z,101672.50
2023-05-14T15:50:05.914Z,101671.00
2023-05-14T15:52:32.486Z,101672.91
2023-05-14T15:54:59.598Z,101667.97
2023-05-14T15:57:26.253Z,101670.25
2023-05-14T15:59:52.685Z,101668.34
2023-05-14T16:02:19.170Z,101664.94
2023-05-14T16:04:45.680Z,101666.84
2023-05-14T16:07:13.164Z,101680.47
2023-05-14T16:09:39.595Z,101687.28
2023-05-14T16:12:06.847Z,101679.34
2023-05-14T16:14:34.678Z,101678.59
2023-05-14T16:17:02.068Z,101668.75
2023-05-14T16:19:28.674Z,101670.25
2023-05-14T16:21:55.097Z,101674.41
2023-05-14T16:24:21.638Z,101675.91
2023-05-14T16:26:48.206Z,101684.59
2023-05-14T16:29:14.664Z,101684.63
2023-05-14T16:31:41.230Z,101682.41
2023-05-14T16:34:07.687Z,101687.31
2023-05-14T16:36:34.253Z,101690.75
2023-05-14T16:41:30.064Z,101691.53
2023-05-14T16:43:56.552Z,101687.38
2023-05-14T16:46:23.131Z,101683.97
2023-05-14T16:48:50.701Z,101685.13
2023-05-14T16:51:17.270Z,101687.72
2023-05-14T16:53:43.679Z,101694.91
2023-05-14T16:56:11.034Z,101699.44
2023-05-14T16:58:37.508Z,101693.00
2023-05-14T17:01:04.147Z,101698.25
2023-05-14T17:03:30.640Z,101708.84
2023-05-14T17:05:57.172Z,101701.66
2023-05-14T17:08:23.681Z,101716.44
2023-05-14T17:10:50.182Z,101706.59
2023-05-14T17:13:16.821Z,101703.19
2023-05-14T17:15:44.033Z,101703.94
2023-05-14T17:18:12.041Z,101704.31
2023-05-14T17:20:38.634Z,101704.31
2023-05-14T17:23:05.024Z,101710.03
2023-05-14T17:25:33.163Z,101712.69
2023-05-14T17:28:00.092Z,101711.94
2023-05-14T17:30:26.635Z,101707.38
2023-05-14T17:32:53.146Z,101712.25
2023-05-14T17:35:19.711Z,101702.84
2023-05-14T17:37:46.345Z,101706.97
2023-05-14T17:40:13.268Z,101702.84
2023-05-14T17:42:39.692Z,101703.63
2023-05-14T17:45:06.879Z,101705.88
2023-05-14T17:47:33.394Z,101705.06
2023-05-14T17:49:59.961Z,101709.59
2023-05-14T17:52:26.387Z,101711.81
2023-05-14T17:54:52.794Z,101712.91
2023-05-14T17:57:19.251Z,101719.28
2023-05-14T17:59:45.717Z,101718.47
2023-05-14T18:02:12.125Z,101713.09
2023-05-14T18:04:38.539Z,101718.34
2023-05-14T18:07:05.483Z,101730.34
2023-05-14T18:09:32.122Z,101727.63
2023-05-14T18:11:58.546Z,101729.81
2023-05-14T18:14:25.038Z,101725.16
2023-05-14T18:16:51.556Z,101735.69
2023-05-14T18:19:18.447Z,101739.06
2023-05-14T18:21:48.070Z,101738.63
2023-05-14T18:24:14.642Z,101734.75
2023-05-14T18:26:41.080Z,101733.19
2023-05-14T18:29:07.516Z,101740.34
2023-05-14T18:31:34.017Z,101734.63
2023-05-14T18:34:00.539Z,101735.41
2023-05-14T18:36:27.005Z,101734.94
2023-05-14T18:38:53.386Z,101735.31
2023-05-14T18:41:19.808Z,101735.69
2023-05-14T18:43:46.300Z,101740.00
2023-05-14T18:46:12.793Z,101742.72
2023-05-14T18:48:39.320Z,101746.53
2023-05-14T18:51:05.787Z,101745.09
2023-05-14T18:53:32.289Z,101750.81
2023-05-14T18:56:00.077Z,101747.53
2023-05-14T18:58:26.494Z,101752.53
2023-05-14T19:00:52.897Z,101754.84
2023-05-14T19:03:20.298Z,101756.00
2023-05-14T19:05:47.194Z,101754.16
2023-05-14T19:08:13.731Z,101756.09
2023-05-14T19:10:40.183Z,101759.16
2023-05-14T19:13:06.618Z,101756.59
2023-05-14T19:15:33.147Z,101751.28
2023-05-14T19:18:00.331Z,101758.50
2023-05-14T19:20:27.260Z,101755.56
2023-05-14T19:22:53.686Z,101759.00
2023-05-14T19:25:20.105Z,101749.09
2023-05-14T19:27:50.878Z,101751.75
2023-05-14T19:30:17.865Z,101751.44
2023-05-14T19:32:44.341Z,101745.50
2023-05-14T19:35:11.517Z,101753.06
2023-05-14T19:37:38.148Z,101746.69
2023-05-14T19:40:06.179Z,101748.28
2023-05-14T19:42:32.623Z,101748.66
2023-05-14T19:44:59.037Z,101747.16
2023-05-14T19:47:25.582Z,101745.69
2023-05-14T19:49:52.049Z,101745.28
2023-05-14T19:52:18.455Z,101746.41
2023-05-14T19:54:44.935Z,101755.50
2023-05-14T19:57:11.328Z,101749.84
2023-05-14T19:59:39.119Z,101751.75
2023-05-14T20:02:05.757Z,101745.75
2023-05-14T20:04:33.226Z,101741.63
2023-05-14T20:06:59.648Z,101756.78
2023-05-14T20:09:26.131Z,101748.44
2023-05-14T20:11:52.570Z,101755.59
2023-05-14T20:14:18.964Z,101755.22
2023-05-14T20:16:46.980Z,101754.03
2023-05-14T20:19:14.257Z,101749.50
2023-05-14T20:21:40.768Z,101743.81
2023-05-14T20:24:07.234Z,101747.59
2023-05-14T20:26:33.955Z,101741.22
2023-05-14T20:29:00.619Z,101742.78
2023-05-14T20:31:27.112Z,101743.94
2023-05-14T20:33:53.651Z,101741.75
2023-05-14T20:36:20.198Z,101741.78
2023-05-14T20:38:47.721Z,101738.38
2023-05-14T20:41:15.063Z,101740.31
2023-05-14T20:43:41.479Z,101733.53
2023-05-14T20:46:08.993Z,101743.38
2023-05-14T20:48:35.431Z,101738.13
2023-05-14T20:51:04.905Z,101735.81
2023-05-14T20:53:31.575Z,101738.84
2023-05-14T20:55:59.004Z,101734.66
2023-05-14T20:58:25.609Z,101734.28
2023-05-14T21:00:52.125Z,101735.03
2023-05-14T21:03:18.730Z,101735.03
2023-05-14T21:05:45.671Z,101725.19
2023-05-14T21:08:12.113Z,101736.53
2023-05-14T21:10:38.542Z,101730.88
2023-05-14T21:13:05.013Z,101728.22
2023-05-14T21:15:31.499Z,101723.69
2023-05-14T21:17:58.127Z,101725.16
2023-05-14T21:20:24.694Z,101725.91
2023-05-14T21:22:51.150Z,101730.47
2023-05-14T21:25:20.471Z,101726.31
2023-05-14T21:27:46.904Z,101721.38
2023-05-14T21:30:13.760Z,101725.56
2023-05-14T21:32:40.338Z,101724.03
2023-05-14T21:35:07.174Z,101727.47
2023-05-14T21:37:33.652Z,101731.25
2023-05-14T21:40:00.284Z,101728.97
2023-05-14T21:42:26.699Z,101728.59
2023-05-14T21:44:53.068Z,101723.31
2023-05-14T21:47:21.047Z,101723.31
2023-05-14T21:49:47.686Z,101720.66
2023-05-14T21:52:14.192Z,101718.72
2023-05-14T21:54:40.589Z,101716.09
2023-05-14T21:57:07.035Z,101710.78
2023-05-14T21:59:33.951Z,101704.44
2023-05-14T22:04:29.703Z,101709.00
2023-05-14T22:06:56.374Z,101698.84
2023-05-14T22:09:22.828Z,101707.53
2023-05-14T22:11:49.290Z,101710.13
2023-05-14T22:14:15.701Z,101713.88
2023-05-14T22:16:42.161Z,101707.84
2023-05-14T22:19:08.770Z,101700.28
2023-05-14T22:21:35.359Z,101708.22
2023-05-14T22:24:01.887Z,101705.19
2023-05-14T22:26:28.308Z,101693.88
2023-05-14T22:28:56.859Z,101697.66
2023-05-14T22:31:23.604Z,101690.47
2023-05-14T22:33:50.044Z,101696.16
2023-05-14T22:36:16.690Z,101698.00
2023-05-14T22:38:43.845Z,101696.88
2023-05-14T22:41:10.894Z,101684.44
2023-05-14T22:43:37.329Z,101686.81
2023-05-14T22:46:04.042Z,101684.16
2023-05-14T22:48:30.519Z,101682.31
2023-05-14T22:50:56.964Z,101681.19
2023-05-14T22:53:25.167Z,101675.13
2023-05-14T22:55:51.813Z,101682.31
2023-05-14T22:58:18.270Z,101679.25
2023-05-14T23:00:44.740Z,101680.75
2023-05-14T23:03:11.133Z,101677.72
2023-05-14T23:05:37.650Z,101678.50
2023-05-14T23:08:04.275Z,101668.72
2023-05-14T23:10:30.721Z,101671.38
2023-05-14T23:12:57.180Z,101675.19
2023-05-14T23:15:23.907Z,101670.28
2023-05-14T23:17:50.645Z,101677.03
2023-05-14T23:20:17.653Z,101669.88
2023-05-14T23:22:44.093Z,101669.88
2023-05-14T23:25:10.576Z,101673.22
2023-05-14T23:27:37.045Z,101663.78
2023-05-14T23:30:04.252Z,101654.75
2023-05-14T23:32:30.784Z,101661.19
2023-05-14T23:34:57.270Z,101659.31
2023-05-14T23:37:24.015Z,101659.69
2023-05-14T23:39:50.788Z,101646.84
2023-05-14T23:42:20.163Z,101652.16
2023-05-14T23:44:46.609Z,101646.50
2023-05-14T23:47:13.101Z,101640.88
2023-05-14T23:49:40.806Z,101640.88
2023-05-14T23:52:07.307Z,101623.88
2023-05-14T23:54:33.801Z,101617.06
2023-05-14T23:57:00.403Z,101611.78
2023-05-14T23:59:26.904Z,101609.88
